Time;durP1;ratioP1;P1;durP2;ratioP2;P2;SDS_P1;SDS_P2;PMS_P1;PMS_P2;Temp;Humidity;BMP_temperature;BMP_pressure;BME280_temperature;BME280_humidity;BME280_pressure;Samples;Min_cycle;Max_cycle;Signal;HPM_P1;HPM_P2
2023/06/01 00:01:52;;;;;;;65.60;62.33;;;11.40;99.90;;;;;;4983522;28;20349;-77
2023/06/01 00:04:18;;;;;;;70.25;66.30;;;11.40;99.90;;;;;;4987899;28;20172;-76
2023/06/01 00:06:44;;;;;;;73.53;69.97;;;11.40;99.90;;;;;;4985140;28;20117;-76
2023/06/01 00:09:09;;;;;;;85.00;80.90;;;11.40;99.90;;;;;;4987348;28;20479;-76
2023/06/01 00:11:35;;;;;;;75.10;71.47;;;11.30;99.90;;;;;;4986056;28;20046;-76
2023/06/01 00:14:01;;;;;;;80.63;76.53;;;11.30;99.90;;;;;;4966966;28;20483;-76
2023/06/01 00:16:30;;;;;;;76.93;73.18;;;11.30;99.90;;;;;;4979358;28;20157;-78
2023/06/01 00:18:56;;;;;;;84.80;80.70;;;11.30;99.90;;;;;;4973635;28;20030;-75
2023/06/01 00:21:22;;;;;;;72.05;68.20;;;11.20;99.90;;;;;;4987277;28;20042;-79
2023/06/01 00:23:49;;;;;;;72.70;69.07;;;11.30;99.90;;;;;;4980425;28;20042;-75
2023/06/01 00:26:15;;;;;;;79.05;75.07;;;11.20;99.90;;;;;;4981595;28;20050;-76
2023/06/01 00:28:41;;;;;;;62.70;59.67;;;11.20;99.90;;;;;;4986826;28;20064;-75
2023/06/01 00:31:07;;;;;;;67.03;63.63;;;11.30;99.90;;;;;;4978442;28;20042;-77
2023/06/01 00:33:33;;;;;;;69.03;65.40;;;11.30;99.90;;;;;;4983456;28;20072;-75
2023/06/01 00:35:58;;;;;;;68.28;64.68;;;11.20;99.90;;;;;;4984391;28;20062;-77
2023/06/01 00:38:24;;;;;;;61.85;58.80;;;11.30;99.90;;;;;;4984470;28;20492;-75
2023/06/01 00:40:50;;;;;;;79.00;75.13;;;11.20;99.90;;;;;;4970900;28;20128;-75
2023/06/01 00:43:17;;;;;;;64.35;60.70;;;11.20;99.90;;;;;;4984626;28;20047;-75
2023/06/01 00:45:43;;;;;;;64.15;60.80;;;11.30;99.90;;;;;;4968440;28;20372;-75
2023/06/01 00:48:10;;;;;;;68.68;65.40;;;11.30;99.90;;;;;;4982223;28;20105;-76
2023/06/01 00:50:36;;;;;;;72.75;68.93;;;11.30;99.90;;;;;;4982274;28;20042;-75
2023/06/01 00:53:05;;;;;;;66.55;63.17;;;11.30;99.90;;;;;;4985514;28;20050;-76
2023/06/01 00:55:31;;;;;;;74.18;70.45;;;11.30;99.90;;;;;;4983241;28;20050;-77
2023/06/01 00:57:57;;;;;;;70.88;67.28;;;11.30;99.90;;;;;;4968960;28;20030;-75
2023/06/01 01:00:26;;;;;;;82.55;77.70;;;11.20;99.90;;;;;;4986360;28;20046;-77
2023/06/01 01:02:52;;;;;;;84.63;80.50;;;11.10;99.90;;;;;;4985901;28;20129;-76
2023/06/01 01:05:19;;;;;;;86.00;81.88;;;11.10;99.90;;;;;;4967637;28;20133;-76
2023/06/01 01:08:16;;;;;;;90.38;85.95;;;11.10;99.90;;;;;;5001149;28;20027;-77
2023/06/01 01:10:55;;;;;;;77.90;73.55;;;11.10;99.90;;;;;;4985467;28;20057;-76
2023/06/01 01:13:35;;;;;;;72.18;68.50;;;11.10;99.90;;;;;;4984484;28;20050;-76
2023/06/01 01:16:10;;;;;;;77.38;73.80;;;11.10;99.90;;;;;;4985934;28;20038;-76
2023/06/01 01:18:54;;;;;;;77.55;73.10;;;11.10;99.90;;;;;;4984133;28;20403;-76
2023/06/01 01:21:33;;;;;;;80.80;76.85;;;11.10;99.90;;;;;;4982168;28;20038;-75
2023/06/01 01:24:02;;;;;;;77.00;72.88;;;11.10;99.90;;;;;;4981122;28;20041;-75
2023/06/01 01:26:46;;;;;;;89.85;85.55;;;11.20;99.90;;;;;;4985802;28;20054;-75
2023/06/01 01:29:14;;;;;;;94.38;89.75;;;11.10;99.90;;;;;;4984323;28;20049;-76
2023/06/01 01:31:41;;;;;;;93.15;88.90;;;11.10;99.90;;;;;;4984747;28;20042;-77
2023/06/01 01:34:08;;;;;;;87.40;83.43;;;11.10;99.90;;;;;;4983324;28;20501;-75
2023/06/01 01:36:35;;;;;;;94.30;90.10;;;11.10;99.90;;;;;;4985229;28;20050;-79
2023/06/01 01:39:02;;;;;;;67.50;64.22;;;11.10;99.90;;;;;;4983272;28;20093;-75
2023/06/01 01:41:28;;;;;;;99.25;94.47;;;11.10;99.90;;;;;;4981802;28;20042;-76
2023/06/01 01:43:55;;;;;;;84.47;80.50;;;11.10;99.90;;;;;;4990863;28;20620;-75
2023/06/01 01:46:29;;;;;;;89.47;85.15;;;11.10;99.90;;;;;;4986807;28;20133;-75
2023/06/01 01:48:55;;;;;;;;;;;11.00;99.90;;;;;;4987078;28;20078;-75
2023/06/01 01:51:28;;;;;;;122.57;117.03;;;11.00;99.90;;;;;;4989157;28;19957;-76
2023/06/01 01:53:55;;;;;;;112.68;107.30;;;11.00;99.90;;;;;;4990015;28;20045;-77
2023/06/01 01:56:22;;;;;;;84.15;80.15;;;11.00;99.90;;;;;;4983776;28;20109;-76
2023/06/01 01:58:49;;;;;;;97.72;93.38;;;11.00;99.90;;;;;;4972204;28;20471;-74
2023/06/01 02:01:16;;;;;;;86.13;82.22;;;11.00;99.90;;;;;;4988525;28;20042;-76
2023/06/01 02:03:42;;;;;;;86.07;81.70;;;11.00;99.90;;;;;;4989580;28;20112;-79
2023/06/01 02:06:08;;;;;;;83.07;78.97;;;11.10;99.90;;;;;;4988655;28;20082;-75
2023/06/01 02:08:34;;;;;;;89.85;85.88;;;11.10;99.90;;;;;;4985687;28;20074;-76
2023/06/01 02:10:59;;;;;;;87.20;83.32;;;11.10;99.90;;;;;;4989235;28;20097;-75
2023/06/01 02:13:25;;;;;;;86.93;83.10;;;11.10;99.90;;;;;;4986844;28;20098;-75
2023/06/01 02:15:50;;;;;;;79.28;75.63;;;11.10;99.90;;;;;;4989216;28;20037;-75
2023/06/01 02:18:17;;;;;;;86.30;82.50;;;11.10;99.90;;;;;;4982387;28;20112;-77
2023/06/01 02:20:45;;;;;;;90.10;85.90;;;11.10;99.90;;;;;;4989006;28;20070;-75
2023/06/01 02:23:11;;;;;;;78.53;74.53;;;11.10;99.90;;;;;;4984281;28;20431;-75
2023/06/01 02:25:36;;;;;;;92.10;87.75;;;11.10;99.90;;;;;;5005589;28;20050;-75
2023/06/01 02:28:02;;;;;;;89.15;85.22;;;11.10;99.90;;;;;;4972550;28;20045;-76
2023/06/01 02:30:28;;;;;;;82.65;78.78;;;11.10;99.90;;;;;;4969688;28;20054;-78
2023/06/01 02:32:53;;;;;;;80.53;76.70;;;11.10;99.90;;;;;;4981727;28;20053;-75
2023/06/01 02:35:19;;;;;;;98.10;93.75;;;11.10;99.90;;;;;;4988619;28;20169;-80
2023/06/01 02:37:45;;;;;;;94.43;90.32;;;11.10;99.90;;;;;;4989811;28;20129;-77
2023/06/01 02:40:11;;;;;;;101.18;96.72;;;11.10;99.90;;;;;;4988503;28;20050;-76
2023/06/01 02:42:38;;;;;;;93.07;88.82;;;11.10;99.90;;;;;;4986348;28;20035;-75
2023/06/01 02:45:05;;;;;;;108.78;103.93;;;11.10;99.90;;;;;;4988042;28;20042;-75
2023/06/01 02:47:31;;;;;;;120.53;115.22;;;11.10;99.90;;;;;;4984970;28;20181;-75
2023/06/01 02:49:57;;;;;;;105.57;100.40;;;11.10;99.90;;;;;;4963101;28;20127;-75
2023/06/01 02:52:22;;;;;;;105.65;101.20;;;11.10;99.90;;;;;;4984071;28;20104;-75
2023/06/01 02:54:48;;;;;;;100.93;96.68;;;11.10;99.90;;;;;;4986114;28;20580;-75
2023/06/01 02:57:14;;;;;;;95.13;91.03;;;11.10;99.90;;;;;;4988871;28;20049;-77
2023/06/01 02:59:39;;;;;;;99.07;94.72;;;11.10;99.90;;;;;;4988735;28;20034;-75
2023/06/01 03:02:05;;;;;;;99.88;95.68;;;11.10;99.90;;;;;;4987021;28;20038;-75
2023/06/01 03:04:32;;;;;;;100.07;95.60;;;11.10;99.90;;;;;;4987120;28;20181;-75
2023/06/01 03:06:58;;;;;;;94.00;89.85;;;11.10;99.90;;;;;;4962695;28;20054;-75
2023/06/01 03:09:25;;;;;;;119.25;114.35;;;11.10;99.90;;;;;;4974160;28;20132;-76
2023/06/01 03:11:50;;;;;;;104.72;100.43;;;11.10;99.90;;;;;;4985687;28;20070;-76
2023/06/01 03:14:16;;;;;;;100.63;95.85;;;11.10;99.90;;;;;;4987172;28;20076;-75
2023/06/01 03:16:41;;;;;;;111.75;107.07;;;11.20;99.90;;;;;;4986070;28;20034;-74
2023/06/01 03:19:07;;;;;;;112.25;107.30;;;11.10;99.90;;;;;;4988413;28;20050;-77
2023/06/01 03:21:33;;;;;;;114.65;109.38;;;11.10;99.90;;;;;;4984327;28;20138;-77
2023/06/01 03:23:59;;;;;;;104.75;100.20;;;11.20;99.90;;;;;;4985561;28;20435;-76
2023/06/01 03:26:25;;;;;;;102.70;98.05;;;11.20;99.90;;;;;;4987308;28;20050;-77
2023/06/01 03:28:51;;;;;;;102.22;97.50;;;11.20;99.90;;;;;;4986483;28;20049;-76
2023/06/01 03:31:16;;;;;;;122.05;116.78;;;11.20;99.90;;;;;;4988976;28;20053;-75
2023/06/01 03:33:42;;;;;;;112.63;107.60;;;11.20;99.90;;;;;;4967595;28;20042;-77
2023/06/01 03:36:08;;;;;;;103.78;99.05;;;11.10;99.90;;;;;;4987612;28;20438;-75
2023/06/01 03:38:34;;;;;;;100.55;96.00;;;11.20;99.90;;;;;;4986260;28;20490;-76
2023/06/01 03:41:00;;;;;;;107.80;102.85;;;11.20;99.90;;;;;;4983746;28;20125;-78
2023/06/01 03:43:26;;;;;;;117.60;112.30;;;11.20;99.90;;;;;;4986400;28;20046;-75
2023/06/01 03:45:52;;;;;;;104.43;99.53;;;11.10;99.90;;;;;;4987220;28;20053;-76
2023/06/01 03:48:18;;;;;;;93.72;89.45;;;11.20;99.90;;;;;;5002515;28;20466;-77
2023/06/01 03:50:44;;;;;;;92.40;87.88;;;11.20;99.90;;;;;;4987767;28;20042;-77
2023/06/01 03:53:10;;;;;;;89.05;85.05;;;11.20;99.90;;;;;;4970332;28;20092;-78
2023/06/01 03:55:36;;;;;;;97.47;93.32;;;11.20;99.90;;;;;;4987679;28;20073;-76
2023/06/01 03:58:02;;;;;;;97.07;92.82;;;11.20;99.90;;;;;;4981189;28;20049;-77
2023/06/01 04:00:28;;;;;;;99.60;95.40;;;11.20;99.90;;;;;;4983463;28;20038;-76
2023/06/01 04:02:56;;;;;;;92.65;88.40;;;11.20;99.90;;;;;;4986362;28;20044;-76
2023/06/01 04:05:23;;;;;;;93.40;89.10;;;11.20;99.90;;;;;;4985918;28;20074;-75
2023/06/01 04:07:51;;;;;;;104.70;99.90;;;11.20;99.90;;;;;;4989435;28;20073;-76
2023/06/01 04:10:17;;;;;;;92.80;88.72;;;11.20;99.90;;;;;;4969914;28;20082;-75
2023/06/01 04:12:44;;;;;;;91.30;87.22;;;11.20;99.90;;;;;;4986867;28;20046;-75
2023/06/01 04:15:13;;;;;;;85.35;81.18;;;11.30;99.90;;;;;;4987107;28;20463;-76
2023/06/01 04:17:40;;;;;;;98.32;93.65;;;11.30;99.90;;;;;;4985461;28;20042;-74
2023/06/01 04:20:10;;;;;;;90.57;86.50;;;11.30;99.90;;;;;;4983297;28;20057;-76
2023/06/01 04:22:37;;;;;;;95.88;91.40;;;11.30;99.90;;;;;;4987866;28;20136;-75
2023/06/01 04:25:08;;;;;;;101.93;97.35;;;11.30;99.90;;;;;;4986304;28;20415;-76
2023/06/01 04:27:37;;;;;;;105.78;101.25;;;11.30;99.90;;;;;;4984722;28;20046;-77
2023/06/01 04:30:07;;;;;;;89.18;85.28;;;11.30;99.90;;;;;;4969611;28;20054;-76
2023/06/01 04:32:35;;;;;;;99.22;94.90;;;11.30;99.90;;;;;;4987441;28;20380;-76
2023/06/01 04:35:05;;;;;;;100.88;96.15;;;11.30;99.90;;;;;;4982709;28;20049;-75
2023/06/01 04:37:34;;;;;;;110.60;105.78;;;11.30;99.90;;;;;;4969850;28;20066;-75
2023/06/01 04:40:06;;;;;;;118.80;113.25;;;11.30;99.90;;;;;;4986884;28;20042;-75
2023/06/01 04:42:33;;;;;;;108.90;104.13;;;11.30;99.90;;;;;;4986670;28;20051;-75
2023/06/01 04:44:59;;;;;;;103.18;98.18;;;11.30;99.90;;;;;;4985426;28;20071;-77
2023/06/01 04:47:26;;;;;;;94.35;90.30;;;11.30;99.90;;;;;;4987837;28;20403;-77
2023/06/01 04:49:52;;;;;;;95.47;90.75;;;11.30;99.90;;;;;;4990473;28;20053;-76
2023/06/01 04:52:19;;;;;;;101.38;96.72;;;11.30;99.90;;;;;;4982914;28;20049;-74
2023/06/01 04:54:45;;;;;;;100.07;95.70;;;11.30;99.90;;;;;;4986382;28;20416;-75
2023/06/01 04:57:13;;;;;;;104.32;99.72;;;11.30;99.90;;;;;;4985683;28;20042;-75
2023/06/01 04:59:41;;;;;;;110.57;105.82;;;11.30;99.90;;;;;;4986356;28;20073;-76
2023/06/01 05:02:07;;;;;;;108.80;103.97;;;11.40;99.90;;;;;;4985963;28;20042;-75
2023/06/01 05:04:33;;;;;;;104.60;100.13;;;11.40;99.90;;;;;;4986343;28;20088;-75
2023/06/01 05:06:58;;;;;;;103.00;98.22;;;11.40;99.90;;;;;;4969921;28;20125;-75
2023/06/01 05:09:25;;;;;;;100.47;96.10;;;11.40;99.90;;;;;;4986634;28;20051;-76
2023/06/01 05:11:51;;;;;;;94.53;90.10;;;11.40;99.90;;;;;;4984132;28;20049;-75
2023/06/01 05:14:16;;;;;;;123.05;117.65;;;11.50;99.90;;;;;;4986339;28;20050;-76
2023/06/01 05:16:42;;;;;;;126.03;120.70;;;11.50;99.90;;;;;;4969504;28;20964;-76
2023/06/01 05:19:08;;;;;;;125.97;120.68;;;11.50;99.90;;;;;;4985880;28;20562;-76
2023/06/01 05:21:33;;;;;;;119.18;113.97;;;11.50;99.90;;;;;;4974462;28;20045;-76
2023/06/01 05:23:59;;;;;;;114.75;109.93;;;11.50;99.90;;;;;;4989582;28;20038;-76
2023/06/01 05:26:25;;;;;;;119.95;114.78;;;11.50;99.90;;;;;;4987336;28;20508;-75
2023/06/01 05:28:50;;;;;;;123.60;118.50;;;11.50;99.90;;;;;;5001499;28;20065;-76
2023/06/01 05:31:16;;;;;;;126.22;120.72;;;11.50;99.90;;;;;;4986405;28;20490;-76
2023/06/01 05:33:42;;;;;;;116.88;111.75;;;11.50;99.90;;;;;;4981757;28;20049;-75
2023/06/01 05:36:08;;;;;;;129.73;124.28;;;11.50;99.90;;;;;;4986919;28;20051;-76
2023/06/01 05:38:33;;;;;;;84.65;80.65;;;11.60;99.90;;;;;;4989833;28;20577;-77
2023/06/01 05:40:59;;;;;;;76.90;73.00;;;11.60;99.90;;;;;;4988804;28;20061;-76
2023/06/01 05:43:24;;;;;;;85.75;81.72;;;11.60;99.90;;;;;;4983268;28;20045;-77
2023/06/01 05:45:50;;;;;;;79.93;76.13;;;11.60;99.90;;;;;;4988750;28;20042;-76
2023/06/01 05:48:16;;;;;;;78.03;74.45;;;11.70;99.90;;;;;;4971859;28;20491;-76
2023/06/01 05:50:42;;;;;;;96.30;92.07;;;11.70;99.90;;;;;;4986413;28;20418;-77
2023/06/01 05:53:08;;;;;;;100.75;96.35;;;11.70;99.90;;;;;;4985918;28;20056;-76
2023/06/01 05:55:34;;;;;;;85.00;80.95;;;11.70;99.90;;;;;;5005756;28;20042;-75
2023/06/01 05:58:00;;;;;;;88.18;83.90;;;11.80;99.90;;;;;;4987191;28;20042;-77
2023/06/01 06:00:26;;;;;;;86.50;82.38;;;11.80;99.90;;;;;;4977155;28;20045;-76
2023/06/01 06:02:51;;;;;;;83.45;79.70;;;11.80;99.90;;;;;;4987268;28;20042;-77
2023/06/01 06:05:17;;;;;;;106.18;101.28;;;11.80;99.90;;;;;;4989342;28;20475;-76
2023/06/01 06:07:43;;;;;;;109.78;105.03;;;11.90;99.90;;;;;;4991298;28;20411;-76
2023/06/01 06:10:09;;;;;;;119.57;114.22;;;11.90;99.90;;;;;;4988172;28;20050;-76
2023/06/01 06:12:35;;;;;;;107.05;102.25;;;11.90;99.90;;;;;;5006692;28;20089;-76
2023/06/01 06:15:01;;;;;;;97.40;93.30;;;11.90;99.90;;;;;;4988189;28;20042;-76
2023/06/01 06:17:26;;;;;;;106.47;101.72;;;11.90;99.90;;;;;;4969546;28;20503;-77
2023/06/01 06:19:52;;;;;;;122.28;117.07;;;12.00;99.90;;;;;;4987743;28;20049;-78
2023/06/01 06:22:18;;;;;;;112.80;108.10;;;12.00;99.90;;;;;;4986286;28;20050;-78
2023/06/01 06:24:43;;;;;;;132.10;126.55;;;12.00;99.90;;;;;;4984904;28;20109;-77
2023/06/01 06:27:10;;;;;;;129.85;124.35;;;12.00;99.90;;;;;;4990613;28;20042;-77
2023/06/01 06:29:35;;;;;;;130.77;125.30;;;12.00;99.90;;;;;;4989096;28;20121;-77
2023/06/01 06:32:02;;;;;;;121.25;115.78;;;12.00;99.90;;;;;;4984244;28;20125;-77
2023/06/01 06:34:34;;;;;;;125.70;120.38;;;12.10;99.90;;;;;;4986853;28;20418;-75
2023/06/01 06:37:04;;;;;;;118.38;113.28;;;12.10;99.90;;;;;;4988815;28;20035;-77
2023/06/01 06:39:29;;;;;;;123.20;118.18;;;12.10;99.90;;;;;;4970059;28;20065;-76
2023/06/01 06:41:55;;;;;;;127.07;121.57;;;12.10;99.90;;;;;;4989259;28;20104;-76
2023/06/01 06:44:21;;;;;;;127.88;122.68;;;12.20;99.90;;;;;;4988811;28;20518;-77
2023/06/01 06:46:46;;;;;;;121.55;116.60;;;12.20;99.90;;;;;;4989192;28;20050;-78
2023/06/01 06:49:12;;;;;;;103.85;99.50;;;12.20;99.90;;;;;;4985771;28;20049;-76
2023/06/01 06:51:38;;;;;;;110.43;105.85;;;12.20;99.90;;;;;;4987960;28;20045;-77
2023/06/01 06:54:05;;;;;;;113.07;108.47;;;12.30;99.90;;;;;;4987786;28;20108;-77
2023/06/01 06:56:31;;;;;;;108.05;103.05;;;12.30;99.90;;;;;;4988662;28;20455;-77
2023/06/01 06:58:56;;;;;;;107.68;103.15;;;12.30;99.90;;;;;;4986551;28;20103;-77
2023/06/01 07:01:24;;;;;;;97.88;93.47;;;12.30;99.90;;;;;;4986372;28;20065;-77
2023/06/01 07:03:55;;;;;;;108.60;104.20;;;12.30;99.90;;;;;;4987143;28;20045;-77
2023/06/01 07:06:22;;;;;;;94.88;90.65;;;12.30;99.90;;;;;;4993321;28;20038;-78
2023/06/01 07:08:48;;;;;;;123.97;118.95;;;12.40;99.90;;;;;;4988479;28;20061;-76
2023/06/01 07:11:14;;;;;;;116.00;111.20;;;12.40;99.90;;;;;;4974381;28;20410;-77
2023/06/01 07:13:40;;;;;;;119.07;113.97;;;12.40;99.90;;;;;;4988170;28;20057;-77
2023/06/01 07:16:05;;;;;;;120.28;115.25;;;12.40;99.90;;;;;;4988333;28;20057;-77
2023/06/01 07:18:31;;;;;;;119.30;114.45;;;12.40;99.90;;;;;;4987530;28;20044;-77
2023/06/01 07:21:01;;;;;;;113.13;108.15;;;12.50;99.90;;;;;;4982874;28;20070;-78
2023/06/01 07:23:27;;;;;;;115.28;110.53;;;12.50;99.90;;;;;;4978290;28;20585;-77
2023/06/01 07:25:52;;;;;;;117.60;112.80;;;12.50;99.90;;;;;;4988489;28;20042;-79
2023/06/01 07:28:18;;;;;;;116.97;112.18;;;12.50;99.90;;;;;;4987785;28;20042;-77
2023/06/01 07:30:44;;;;;;;112.15;107.25;;;12.50;99.90;;;;;;4965965;28;20173;-77
2023/06/01 07:33:10;;;;;;;88.93;85.10;;;12.60;99.90;;;;;;4971416;28;20104;-78
2023/06/01 07:35:36;;;;;;;100.45;95.88;;;12.60;99.90;;;;;;4988062;28;20046;-77
2023/06/01 07:38:03;;;;;;;85.53;82.03;;;12.70;99.90;;;;;;4967464;28;20045;-76
2023/06/01 07:40:30;;;;;;;118.93;113.75;;;12.70;99.90;;;;;;4987226;28;20502;-77
2023/06/01 07:42:55;;;;;;;101.18;97.05;;;12.80;99.90;;;;;;4986260;28;20061;-77
2023/06/01 07:45:21;;;;;;;95.70;91.75;;;12.80;99.90;;;;;;4988467;28;20487;-77
2023/06/01 07:47:47;;;;;;;98.45;93.97;;;12.90;99.90;;;;;;4986634;28;20133;-77
2023/06/01 07:50:13;;;;;;;83.93;80.22;;;12.90;99.90;;;;;;4983086;28;20053;-79
2023/06/01 07:52:40;;;;;;;99.25;95.18;;;12.90;99.90;;;;;;4986113;28;20049;-77
2023/06/01 07:55:09;;;;;;;96.25;92.30;;;12.80;99.90;;;;;;4988209;28;20493;-79
2023/06/01 07:57:35;;;;;;;94.45;90.45;;;12.80;99.90;;;;;;4983014;28;20117;-77
2023/06/01 08:00:01;;;;;;;95.25;91.32;;;12.80;99.90;;;;;;4971336;28;20051;-78
2023/06/01 08:02:27;;;;;;;72.40;69.30;;;12.90;99.90;;;;;;4979215;28;20082;-77
2023/06/01 08:04:56;;;;;;;77.60;74.32;;;13.10;99.90;;;;;;4986484;28;20132;-77
2023/06/01 08:07:22;;;;;;;64.47;61.58;;;13.30;99.90;;;;;;4990807;28;20041;-78
2023/06/01 08:09:48;;;;;;;77.82;74.50;;;13.50;99.90;;;;;;4988516;28;20050;-77
2023/06/01 08:12:14;;;;;;;90.75;86.88;;;13.60;99.90;;;;;;4963785;28;20058;-81
2023/06/01 08:14:41;;;;;;;112.72;108.10;;;13.60;99.90;;;;;;4982700;28;20542;-79
2023/06/01 08:17:06;;;;;;;118.57;113.68;;;13.50;99.90;;;;;;4977693;28;20065;-77
2023/06/01 08:19:33;;;;;;;89.65;85.78;;;13.30;99.90;;;;;;4959962;28;20043;-77
2023/06/01 08:21:59;;;;;;;82.10;78.63;;;13.20;99.90;;;;;;4975121;28;20038;-77
2023/06/01 08:24:25;;;;;;;70.38;67.25;;;13.10;99.90;;;;;;4981757;28;20088;-77
2023/06/01 08:26:56;;;;;;;66.82;63.92;;;13.10;99.90;;;;;;4977991;28;20046;-78
2023/06/01 08:29:21;;;;;;;58.92;56.13;;;13.00;99.90;;;;;;4996198;28;20498;-78
2023/06/01 08:31:47;;;;;;;59.80;57.10;;;13.00;99.90;;;;;;4977079;28;20116;-77
2023/06/01 08:34:13;;;;;;;56.65;53.92;;;13.00;99.90;;;;;;4982855;28;20049;-79
2023/06/01 08:36:38;;;;;;;54.35;51.85;;;13.00;99.90;;;;;;4984962;28;20048;-77
2023/06/01 08:39:23;;;;;;;53.65;50.75;;;13.00;99.90;;;;;;4983814;28;20038;-80
2023/06/01 08:42:09;;;;;;;71.22;67.97;;;12.90;99.90;;;;;;4959053;28;20049;-77
2023/06/01 08:44:40;;;;;;;69.93;66.70;;;12.80;99.90;;;;;;4993253;28;20046;-77
2023/06/01 08:47:06;;;;;;;59.47;56.42;;;12.70;99.90;;;;;;4965438;28;20049;-78
2023/06/01 08:49:33;;;;;;;64.25;61.10;;;12.70;99.90;;;;;;4985597;28;20061;-79
2023/06/01 08:52:13;;;;;;;73.10;69.72;;;12.70;99.90;;;;;;4980002;28;20493;-77
2023/06/01 08:54:39;;;;;;;58.03;55.03;;;12.60;99.90;;;;;;4982444;28;20828;-76
2023/06/01 08:57:09;;;;;;;60.92;58.08;;;12.50;99.90;;;;;;4968400;28;20418;-76
2023/06/01 08:59:36;;;;;;;55.40;52.80;;;12.50;99.90;;;;;;4981645;28;20125;-76
2023/06/01 09:02:02;;;;;;;51.70;49.17;;;12.50;99.90;;;;;;4986436;28;20092;-76
2023/06/01 09:04:30;;;;;;;57.47;54.65;;;12.60;99.90;;;;;;4983731;28;20038;-76
2023/06/01 09:06:56;;;;;;;60.70;58.05;;;12.70;99.90;;;;;;4970160;28;20482;-77
2023/06/01 09:09:22;;;;;;;65.43;62.20;;;12.90;99.90;;;;;;4987706;28;20058;-77
2023/06/01 09:11:47;;;;;;;65.57;62.47;;;13.00;99.90;;;;;;4982662;28;20048;-77
2023/06/01 09:14:24;;;;;;;104.65;100.05;;;13.20;99.90;;;;;;4983822;28;20089;-78
2023/06/01 09:16:51;;;;;;;123.53;118.13;;;13.30;99.90;;;;;;4976475;28;20077;-76
2023/06/01 09:19:20;;;;;;;123.25;117.85;;;13.30;99.90;;;;;;4980631;28;20035;-79
2023/06/01 09:21:58;;;;;;;174.98;167.57;;;13.30;99.90;;;;;;4978209;28;20063;-77
2023/06/01 09:24:25;;;;;;;165.52;158.40;;;13.30;99.90;;;;;;4977757;28;20674;-78
2023/06/01 09:26:58;;;;;;;162.73;155.55;;;13.30;99.90;;;;;;4981695;28;20046;-77
2023/06/01 09:29:24;;;;;;;152.63;146.13;;;13.40;99.90;;;;;;4967501;28;20129;-76
2023/06/01 09:31:49;;;;;;;173.27;166.05;;;13.40;99.90;;;;;;4961266;28;20052;-76
2023/06/01 09:34:20;;;;;;;162.82;155.93;;;13.40;99.90;;;;;;4983100;28;20487;-77
2023/06/01 09:36:50;;;;;;;201.50;193.13;;;13.40;99.90;;;;;;4980730;28;20034;-77
2023/06/01 09:39:18;;;;;;;174.13;167.02;;;13.40;99.90;;;;;;4967814;28;20561;-77
2023/06/01 09:41:58;;;;;;;178.75;171.23;;;13.30;99.90;;;;;;4984352;28;20074;-77
2023/06/01 09:44:41;;;;;;;151.90;145.43;;;13.40;99.90;;;;;;4985743;28;20443;-77
2023/06/01 09:47:10;;;;;;;172.82;165.05;;;13.40;99.90;;;;;;4985804;28;20521;-79
2023/06/01 09:49:43;;;;;;;192.20;184.18;;;13.30;99.90;;;;;;4985421;28;20129;-77
2023/06/01 09:52:14;;;;;;;192.55;184.60;;;13.20;99.90;;;;;;4984659;28;20045;-76
2023/06/01 09:54:43;;;;;;;204.90;196.57;;;13.20;99.90;;;;;;4984222;28;20042;-77
2023/06/01 09:57:09;;;;;;;200.23;191.65;;;13.20;99.90;;;;;;4981201;28;20038;-77
2023/06/01 09:59:45;;;;;;;171.23;164.15;;;13.30;99.90;;;;;;4986316;28;20418;-77
2023/06/01 10:02:12;;;;;;;195.18;186.80;;;13.40;99.90;;;;;;4969788;28;20406;-78
2023/06/01 10:04:40;;;;;;;165.05;158.32;;;13.40;99.90;;;;;;4989944;28;20060;-78
2023/06/01 10:07:06;;;;;;;174.52;166.88;;;13.50;99.90;;;;;;4988976;28;20042;-77
2023/06/01 10:09:38;;;;;;;162.27;155.02;;;13.60;99.90;;;;;;4972538;28;20057;-79
2023/06/01 10:12:04;;;;;;;148.77;142.55;;;13.70;99.90;;;;;;4987145;28;20046;-77
2023/06/01 10:14:31;;;;;;;170.48;163.25;;;13.80;99.90;;;;;;4985534;28;20046;-79
2023/06/01 10:16:58;;;;;;;170.65;163.50;;;13.80;99.90;;;;;;5005688;28;20030;-78
2023/06/01 10:19:24;;;;;;;155.60;149.15;;;13.90;99.90;;;;;;4983048;28;20388;-77
2023/06/01 10:21:50;;;;;;;152.60;146.10;;;14.00;99.90;;;;;;4988434;28;20048;-77
2023/06/01 10:24:19;;;;;;;139.80;133.93;;;14.10;99.90;;;;;;4984149;28;20133;-79
2023/06/01 10:27:11;;;;;;;148.23;142.10;;;14.20;99.90;;;;;;5004589;28;20038;-77
2023/06/01 10:29:37;;;;;;;135.73;130.07;;;14.20;99.90;;;;;;4985371;28;20518;-77
2023/06/01 10:32:03;;;;;;;115.78;110.65;;;14.20;99.90;;;;;;4988942;28;20398;-78
2023/06/01 10:34:42;;;;;;;127.70;122.45;;;14.20;99.90;;;;;;4989130;28;20048;-77
2023/06/01 10:37:08;;;;;;;166.05;159.02;;;14.20;99.90;;;;;;4984951;28;20046;-80
2023/06/01 10:39:34;;;;;;;185.82;178.23;;;14.20;99.90;;;;;;4982499;28;20104;-77
2023/06/01 10:42:12;;;;;;;204.77;195.93;;;14.20;99.90;;;;;;4984136;28;20050;-77
2023/06/01 10:44:38;;;;;;;182.77;174.98;;;14.20;99.90;;;;;;4982542;28;20050;-81
2023/06/01 10:47:24;;;;;;;163.32;156.55;;;14.30;99.90;;;;;;4983137;28;20038;-78
2023/06/01 10:49:50;;;;;;;194.95;186.70;;;14.20;99.90;;;;;;4981197;28;20054;-81
2023/06/01 10:52:38;;;;;;;185.65;178.18;;;14.20;99.90;;;;;;5000636;28;20054;-77
2023/06/01 10:55:10;;;;;;;194.88;187.02;;;14.10;99.90;;;;;;4966893;28;20061;-77
2023/06/01 10:57:37;;;;;;;196.48;188.52;;;14.10;99.90;;;;;;4979124;28;20056;-77
2023/06/01 11:00:14;;;;;;;188.95;180.88;;;14.20;99.90;;;;;;4971854;28;20494;-79
2023/06/01 11:02:49;;;;;;;182.65;175.18;;;14.20;99.90;;;;;;4973866;28;20038;-78
2023/06/01 11:05:35;;;;;;;201.45;193.20;;;14.30;99.90;;;;;;4970751;28;20050;-78
2023/06/01 11:08:01;;;;;;;190.80;183.13;;;14.20;99.90;;;;;;4971055;28;20659;-77
2023/06/01 11:10:56;;;;;;;165.05;158.10;;;14.30;99.90;;;;;;4988770;28;20066;-77
2023/06/01 11:13:22;;;;;;;;;;;14.40;99.90;;;;;;4967219;28;20417;-77
2023/06/01 11:18:41;;;;;;;134.07;128.23;;;14.50;99.90;;;;;;4973364;28;20139;-80
2023/06/01 11:21:29;;;;;;;120.72;115.38;;;14.50;99.90;;;;;;4973976;28;20059;-79
2023/06/01 11:23:57;;;;;;;128.73;123.47;;;14.40;99.90;;;;;;4971547;28;20040;-79
2023/06/01 11:26:29;;;;;;;128.98;123.35;;;14.40;99.90;;;;;;4971237;28;20037;-77
2023/06/01 11:29:04;;;;;;;118.05;112.80;;;14.40;99.90;;;;;;4969527;28;20046;-81
2023/06/01 11:31:41;;;;;;;124.20;119.13;;;14.50;99.90;;;;;;4979485;28;20047;-78
2023/06/01 11:34:09;;;;;;;133.27;127.55;;;14.50;99.90;;;;;;4984718;28;20057;-78
2023/06/01 11:36:40;;;;;;;123.15;117.68;;;14.50;99.90;;;;;;4984238;28;20049;-77
2023/06/01 11:39:16;;;;;;;121.72;116.25;;;14.60;99.90;;;;;;4978107;28;20035;-76
2023/06/01 11:41:44;;;;;;;128.88;123.47;;;14.60;99.90;;;;;;4984437;28;20082;-78
2023/06/01 11:44:09;;;;;;;119.35;114.15;;;14.60;99.90;;;;;;4984824;28;20115;-77
2023/06/01 11:46:36;;;;;;;128.18;122.75;;;14.60;99.90;;;;;;4967671;28;20042;-78
2023/06/01 11:49:06;;;;;;;130.80;124.80;;;14.60;99.90;;;;;;4984236;28;20038;-78
2023/06/01 11:51:37;;;;;;;139.82;133.40;;;14.60;99.90;;;;;;4984267;28;20042;-77
2023/06/01 11:54:03;;;;;;;120.00;115.05;;;14.60;99.90;;;;;;4978350;28;20435;-78
2023/06/01 11:56:34;;;;;;;137.93;131.52;;;14.60;99.90;;;;;;4983311;28;20658;-77
2023/06/01 11:59:08;;;;;;;145.77;139.45;;;14.70;99.90;;;;;;4978397;28;20034;-80
2023/06/01 12:01:36;;;;;;;139.25;133.30;;;14.80;99.90;;;;;;4967751;28;20038;-77
2023/06/01 12:04:04;;;;;;;149.48;143.25;;;14.70;99.90;;;;;;4968202;28;20512;-78
2023/06/01 12:06:30;;;;;;;149.05;142.77;;;14.80;99.90;;;;;;4983232;28;20048;-79
2023/06/01 12:08:57;;;;;;;139.88;133.63;;;14.80;99.90;;;;;;4967694;28;20050;-76
2023/06/01 12:11:28;;;;;;;138.65;132.63;;;14.70;99.90;;;;;;4968465;28;20073;-80
2023/06/01 12:13:58;;;;;;;117.32;112.15;;;14.70;99.90;;;;;;4978974;28;20080;-77
2023/06/01 12:16:27;;;;;;;130.10;124.55;;;14.70;99.90;;;;;;4983622;28;20030;-78
2023/06/01 12:18:54;;;;;;;127.70;121.70;;;14.60;99.90;;;;;;4983717;28;20505;-77
2023/06/01 12:21:20;;;;;;;134.80;128.98;;;14.60;99.90;;;;;;4981934;28;20061;-77
2023/06/01 12:23:52;;;;;;;114.78;109.97;;;14.50;99.90;;;;;;4967010;28;20045;-77
2023/06/01 12:26:18;;;;;;;81.97;78.25;;;14.50;99.90;;;;;;4983343;28;20042;-78